createdAt,value
2018-08-11T00:01:56.301Z,100658.14
2018-08-11T00:04:26.958Z,100664.36
2018-08-11T00:06:57.694Z,100659.48
2018-08-11T00:09:28.323Z,100659.97
2018-08-11T00:11:59.040Z,100652.54
2018-08-11T00:14:29.967Z,100666.36
2018-08-11T00:17:00.750Z,100657.55
2018-08-11T00:19:31.463Z,100660.30
2018-08-11T00:22:02.209Z,100656.56
2018-08-11T00:24:32.973Z,100657.47
2018-08-11T00:27:03.757Z,100656.08
2018-08-11T00:29:34.499Z,100665.48
2018-08-11T00:32:05.195Z,100662.41
2018-08-11T00:34:35.838Z,100655.55
2018-08-11T00:37:06.808Z,100665.66
2018-08-11T00:39:37.558Z,100666.42
2018-08-11T00:42:08.270Z,100665.07
2018-08-11T00:44:39.011Z,100665.69
2018-08-11T00:47:09.676Z,100664.21
2018-08-11T00:49:40.328Z,100673.48
2018-08-11T00:52:11.028Z,100655.89
2018-08-11T00:54:41.989Z,100667.95
2018-08-11T00:57:12.666Z,100676.30
2018-08-11T00:59:43.390Z,100687.13
2018-08-11T01:02:14.161Z,100693.86
2018-08-11T01:04:44.787Z,100698.13
2018-08-11T01:07:15.415Z,100705.37
2018-08-11T01:09:46.262Z,100708.80
2018-08-11T01:12:16.906Z,100717.15
2018-08-11T01:14:47.678Z,100736.15
2018-08-11T01:17:18.317Z,100748.78
2018-08-11T01:19:48.973Z,100747.31
2018-08-11T01:22:19.713Z,100768.13
2018-08-11T01:24:50.381Z,100750.58
2018-08-11T01:27:21.087Z,100761.95
2018-08-11T01:29:51.986Z,100772.05
2018-08-11T01:32:22.664Z,100760.59
2018-08-11T01:34:53.374Z,100785.31
2018-08-11T01:37:23.989Z,100787.72
2018-08-11T01:39:54.678Z,100791.05
2018-08-11T01:42:25.321Z,100768.61
2018-08-11T01:44:56.040Z,100767.34
2018-08-11T01:47:26.827Z,100777.22
2018-08-11T01:49:57.665Z,100779.28
2018-08-11T01:52:28.349Z,100772.63
2018-08-11T01:54:59.002Z,100772.56
2018-08-11T01:57:29.668Z,100770.08
2018-08-11T02:00:00.359Z,100769.48
2018-08-11T02:02:31.078Z,100774.43
2018-08-11T02:05:01.784Z,100783.50
2018-08-11T02:07:32.510Z,100769.62
2018-08-11T02:10:03.155Z,100752.32
2018-08-11T02:12:33.886Z,100738.31
2018-08-11T02:15:05.647Z,100740.30
2018-08-11T02:17:36.406Z,100743.28
2018-08-11T02:20:10.664Z,100744.81
2018-08-11T02:22:42.042Z,100741.66
2018-08-11T02:25:12.770Z,100727.16
2018-08-11T02:27:43.562Z,100725.03
2018-08-11T02:30:16.275Z,100738.76
2018-08-11T02:32:47.099Z,100736.25
2018-08-11T02:35:17.770Z,100746.05
2018-08-11T02:37:48.573Z,100744.98
2018-08-11T02:40:19.235Z,100753.03
2018-08-11T02:42:49.903Z,100748.23
2018-08-11T02:45:20.562Z,100741.20
2018-08-11T02:47:51.220Z,100737.37
2018-08-11T02:50:21.910Z,100745.43
2018-08-11T02:52:52.600Z,100758.33
2018-08-11T02:55:23.253Z,100764.12
2018-08-11T02:57:53.890Z,100773.20
2018-08-11T03:00:24.558Z,100777.73
2018-08-11T03:02:55.274Z,100764.50
2018-08-11T03:05:25.958Z,100770.17
2018-08-11T03:07:56.668Z,100770.11
2018-08-11T03:10:27.288Z,100771.00
2018-08-11T03:12:57.939Z,100781.06
2018-08-11T03:15:28.650Z,100776.86
2018-08-11T03:17:59.312Z,100773.75
2018-08-11T03:20:29.968Z,100776.31
2018-08-11T03:23:00.617Z,100777.27
2018-08-11T03:25:31.297Z,100773.49
2018-08-11T03:28:01.985Z,100780.95
2018-08-11T03:30:32.707Z,100774.57
2018-08-11T03:33:03.399Z,100780.18
2018-08-11T03:35:34.106Z,100788.31
2018-08-11T03:38:04.718Z,100787.23
2018-08-11T03:40:35.418Z,100781.18
2018-08-11T03:43:06.032Z,100780.95
2018-08-11T03:45:36.740Z,100785.05
2018-08-11T03:48:07.371Z,100779.08
2018-08-11T03:50:38.045Z,100790.70
2018-08-11T03:53:08.697Z,100791.34
2018-08-11T03:55:39.371Z,100790.25
2018-08-11T03:58:10.088Z,100785.17
2018-08-11T04:00:40.774Z,100791.03
2018-08-11T04:03:12.202Z,100801.00
2018-08-11T04:05:42.874Z,100806.78
2018-08-11T04:08:13.585Z,100807.56
2018-08-11T04:10:44.359Z,100801.86
2018-08-11T04:13:15.054Z,100811.59
2018-08-11T04:15:45.685Z,100815.11
2018-08-11T04:18:16.334Z,100819.09
2018-08-11T04:20:46.922Z,100816.44
2018-08-11T04:23:17.583Z,100824.70
2018-08-11T04:25:48.230Z,100820.19
2018-08-11T04:28:18.857Z,100817.91
2018-08-11T04:30:49.528Z,100818.00
2018-08-11T04:33:20.332Z,100813.38
2018-08-11T04:35:50.940Z,100820.73
2018-08-11T04:38:21.557Z,100825.48
2018-08-11T04:40:52.233Z,100827.95
2018-08-11T04:43:22.855Z,100836.00
2018-08-11T04:45:53.490Z,100830.16
2018-08-11T04:48:24.136Z,100829.78
2018-08-11T04:50:54.807Z,100833.58
2018-08-11T04:53:25.528Z,100840.06
2018-08-11T04:55:56.246Z,100840.92
2018-08-11T04:58:26.990Z,100838.51
2018-08-11T05:00:57.604Z,100835.39
2018-08-11T05:03:28.240Z,100845.81
2018-08-11T05:05:58.999Z,100858.06
2018-08-11T05:08:29.717Z,100861.34
2018-08-11T05:11:00.351Z,100862.81
2018-08-11T05:13:31.201Z,100863.73
2018-08-11T05:16:02.008Z,100861.89
2018-08-11T05:18:32.783Z,100871.48
2018-08-11T05:21:03.411Z,100864.39
2018-08-11T05:23:34.099Z,100879.38
2018-08-11T05:26:04.809Z,100880.70
2018-08-11T05:28:35.514Z,100887.55
2018-08-11T05:31:06.246Z,100881.86
2018-08-11T05:33:36.923Z,100883.66
2018-08-11T05:36:08.262Z,100884.65
2018-08-11T05:38:38.915Z,100889.36
2018-08-11T05:41:09.601Z,100889.89
2018-08-11T05:43:40.541Z,100896.44
2018-08-11T05:46:11.246Z,100897.13
2018-08-11T05:48:42.031Z,100894.01
2018-08-11T05:51:12.676Z,100898.52
2018-08-11T05:53:43.297Z,100902.34
2018-08-11T05:56:14.016Z,100907.51
2018-08-11T05:58:44.666Z,100906.94
2018-08-11T06:01:15.355Z,100915.47
2018-08-11T06:03:46.080Z,100911.71
2018-08-11T06:06:16.742Z,100907.55
2018-08-11T06:08:47.456Z,100909.50
2018-08-11T06:11:18.079Z,100909.54
2018-08-11T06:13:48.802Z,100917.59
2018-08-11T06:16:19.435Z,100916.05
2018-08-11T06:18:50.081Z,100919.69
2018-08-11T06:21:20.846Z,100917.72
2018-08-11T06:23:51.608Z,100916.13
2018-08-11T06:26:22.275Z,100929.13
2018-08-11T06:28:52.951Z,100923.69
2018-08-11T06:31:23.693Z,100920.77
2018-08-11T06:33:54.350Z,100923.47
2018-08-11T06:36:25.029Z,100926.91
2018-08-11T06:38:55.697Z,100930.11
2018-08-11T06:41:26.408Z,100947.24
2018-08-11T06:43:57.103Z,100951.39
2018-08-11T06:46:27.745Z,100951.13
2018-08-11T06:48:58.437Z,100953.22
2018-08-11T06:51:29.132Z,100950.56
2018-08-11T06:53:59.829Z,100956.75
2018-08-11T06:56:30.489Z,100959.71
2018-08-11T06:59:01.162Z,100950.91
2018-08-11T07:01:31.851Z,100959.23
2018-08-11T07:04:02.559Z,100958.70
2018-08-11T07:06:33.278Z,100958.48
2018-08-11T07:09:03.970Z,100961.37
2018-08-11T07:11:34.786Z,100961.37
2018-08-11T07:14:05.661Z,100962.97
2018-08-11T07:16:36.687Z,100967.36
2018-08-11T07:19:07.570Z,100969.68
2018-08-11T07:21:38.155Z,100964.45
2018-08-11T07:24:08.915Z,100965.31
2018-08-11T07:26:39.572Z,100968.17
2018-08-11T07:29:10.287Z,100967.48
2018-08-11T07:31:40.951Z,100985.92
2018-08-11T07:34:11.603Z,100973.97
2018-08-11T07:36:42.350Z,100986.27
2018-08-11T07:39:12.951Z,100987.00
2018-08-11T07:41:43.593Z,100981.02
2018-08-11T07:44:14.257Z,100988.27
2018-08-11T07:46:44.976Z,100993.59
2018-08-11T07:49:15.632Z,100995.58
2018-08-11T07:51:46.273Z,100999.58
2018-08-11T07:54:16.922Z,101002.92
2018-08-11T07:56:47.546Z,101001.02
2018-08-11T07:59:18.208Z,101013.67
2018-08-11T08:01:48.857Z,101007.36
2018-08-11T08:04:19.616Z,101004.53
2018-08-11T08:06:50.186Z,101020.47
2018-08-11T08:09:20.903Z,101024.20
2018-08-11T08:11:51.510Z,101015.20
2018-08-11T08:14:22.251Z,101015.64
2018-08-11T08:16:52.955Z,101015.30
2018-08-11T08:19:23.674Z,101010.37
2018-08-11T08:21:54.310Z,101018.50
2018-08-11T08:24:24.997Z,101015.98
2018-08-11T08:26:55.717Z,101018.97
2018-08-11T08:29:26.409Z,101019.63
2018-08-11T08:31:57.146Z,101010.83
2018-08-11T08:34:27.788Z,101015.69
2018-08-11T08:36:58.448Z,101009.64
2018-08-11T08:39:29.104Z,101006.97
2018-08-11T08:41:59.837Z,101004.16
2018-08-11T08:44:30.470Z,101006.49
2018-08-11T08:47:01.408Z,101011.95
2018-08-11T08:49:32.152Z,101007.80
2018-08-11T08:52:17.417Z,101014.80
2018-08-11T08:54:48.456Z,101008.56
2018-08-11T08:57:19.089Z,101009.35
2018-08-11T08:59:49.745Z,101010.02
2018-08-11T09:02:20.451Z,101008.31
2018-08-11T09:04:51.191Z,101006.79
2018-08-11T09:07:21.807Z,101010.20
2018-08-11T09:09:52.534Z,101012.11
2018-08-11T09:12:23.246Z,101006.16
2018-08-11T09:14:54.063Z,101002.51
2018-08-11T09:17:24.672Z,101011.28
2018-08-11T09:19:55.380Z,101013.48
2018-08-11T09:22:26.064Z,101007.27
2018-08-11T09:24:56.717Z,101014.09
2018-08-11T09:27:27.332Z,101014.75
2018-08-11T09:29:58.147Z,101013.50
2018-08-11T09:32:28.860Z,101020.02
2018-08-11T09:34:59.745Z,101025.07
2018-08-11T09:37:30.558Z,101025.84
2018-08-11T09:40:01.198Z,101024.17
2018-08-11T09:42:31.870Z,101026.23
2018-08-11T09:45:02.520Z,101024.34
2018-08-11T09:47:33.222Z,101023.11
2018-08-11T09:50:03.944Z,101022.98
2018-08-11T09:52:34.942Z,101027.95
2018-08-11T09:55:05.635Z,101028.09
2018-08-11T09:57:36.567Z,101026.49
2018-08-11T10:00:09.370Z,101023.11
2018-08-11T10:02:40.334Z,101026.22
2018-08-11T10:05:11.070Z,101014.98
2018-08-11T10:07:41.678Z,101014.91
2018-08-11T10:10:12.335Z,101021.52
2018-08-11T10:12:43.398Z,101013.53
2018-08-11T10:15:14.044Z,101012.31
2018-08-11T10:17:44.775Z,101003.83
2018-08-11T10:20:15.390Z,101008.63
2018-08-11T10:22:46.055Z,101008.25
2018-08-11T10:25:16.695Z,101008.34
2018-08-11T10:27:47.419Z,101005.92
2018-08-11T10:30:18.035Z,101003.59
2018-08-11T10:32:48.702Z,101010.41
2018-08-11T10:35:19.318Z,101019.58
2018-08-11T10:37:50.003Z,101016.69
2018-08-11T10:40:20.750Z,101020.38
2018-08-11T10:42:51.339Z,101008.93
2018-08-11T10:45:22.056Z,101008.27
2018-08-11T10:47:52.794Z,101003.96
2018-08-11T10:50:23.444Z,101000.89
2018-08-11T10:52:54.108Z,101010.41
2018-08-11T10:55:24.765Z,101016.28
2018-08-11T10:57:55.453Z,101010.58
2018-08-11T11:00:26.108Z,101013.84
2018-08-11T11:02:56.818Z,101014.93
2018-08-11T11:05:27.470Z,101010.67
2018-08-11T11:07:58.146Z,101010.29
2018-08-11T11:10:28.765Z,101009.22
2018-08-11T11:12:59.481Z,101005.31
2018-08-11T11:15:30.108Z,101004.59
2018-08-11T11:18:00.800Z,101004.45
2018-08-11T11:20:31.484Z,101006.73
2018-08-11T11:23:02.390Z,101006.99
2018-08-11T11:25:33.047Z,101009.63
2018-08-11T11:28:03.679Z,101011.03
2018-08-11T11:30:34.269Z,101002.52
2018-08-11T11:33:04.955Z,101009.07
2018-08-11T11:35:35.616Z,101011.80
2018-08-11T11:38:06.372Z,101012.84
2018-08-11T11:40:37.018Z,101007.94
2018-08-11T11:43:07.722Z,100998.43
2018-08-11T11:45:38.405Z,101000.25
2018-08-11T11:48:09.038Z,100995.33
2018-08-11T11:50:39.662Z,100996.42
2018-08-11T11:53:10.291Z,100994.38
2018-08-11T11:55:40.926Z,100992.39
2018-08-11T11:58:11.614Z,100984.50
2018-08-11T12:00:42.270Z,100988.12
2018-08-11T12:03:12.909Z,100988.63
2018-08-11T12:05:43.683Z,101004.20
2018-08-11T12:08:14.236Z,100992.78
2018-08-11T12:10:44.901Z,100989.48
2018-08-11T12:13:15.647Z,100993.80
2018-08-11T12:15:46.324Z,100983.36
2018-08-11T12:18:17.055Z,100978.02
2018-08-11T12:20:47.694Z,100978.80
2018-08-11T12:23:18.619Z,100981.47
2018-08-11T12:25:49.281Z,100992.09
2018-08-11T12:28:19.951Z,100990.26
2018-08-11T12:31:21.734Z,100975.00
2018-08-11T12:33:52.453Z,100981.22
2018-08-11T12:36:23.079Z,100975.51
2018-08-11T12:38:54.383Z,100980.53
2018-08-11T12:41:25.048Z,100985.28
2018-08-11T12:43:55.695Z,100983.23
2018-08-11T12:46:26.342Z,100983.45
2018-08-11T12:48:56.995Z,100983.59
2018-08-11T12:51:27.607Z,100979.09
2018-08-11T12:53:58.248Z,100966.23
2018-08-11T12:56:28.840Z,100971.47
2018-08-11T12:58:59.618Z,100969.44
2018-08-11T13:01:30.394Z,100968.74
2018-08-11T13:04:01.110Z,100971.46
2018-08-11T13:06:31.800Z,100964.73
2018-08-11T13:09:02.435Z,100986.28
2018-08-11T13:11:33.126Z,100981.14
2018-08-11T13:14:03.892Z,100992.50
2018-08-11T13:16:34.582Z,100980.11
2018-08-11T13:19:05.183Z,100972.36
2018-08-11T13:21:36.075Z,100967.58
2018-08-11T13:24:06.844Z,100979.95
2018-08-11T13:26:37.457Z,100968.87
2018-08-11T13:29:08.220Z,100973.35
2018-08-11T13:31:38.956Z,100967.58
2018-08-11T13:34:09.608Z,100966.44
2018-08-11T13:36:40.302Z,100981.39
2018-08-11T13:39:11.745Z,100971.66
2018-08-11T13:41:47.132Z,100962.90
2018-08-11T13:44:18.911Z,100956.90
2018-08-11T13:46:49.582Z,100961.73
2018-08-11T13:49:20.219Z,100961.84
2018-08-11T13:51:50.847Z,100954.49
2018-08-11T13:54:21.568Z,100962.17
2018-08-11T13:56:52.284Z,100955.13
2018-08-11T13:59:22.923Z,100942.94
2018-08-11T14:01:53.593Z,100951.61
2018-08-11T14:04:24.305Z,100942.03
2018-08-11T14:06:54.935Z,100945.35
2018-08-11T14:09:25.568Z,100945.58
2018-08-11T14:11:56.193Z,100940.88
2018-08-11T14:14:26.799Z,100946.13
2018-08-11T14:16:57.443Z,100942.03
2018-08-11T14:19:28.122Z,100950.50
2018-08-11T14:21:58.820Z,100939.20
2018-08-11T14:24:29.542Z,100941.59
2018-08-11T14:27:00.198Z,100941.17
2018-08-11T14:29:30.867Z,100943.66
2018-08-11T14:32:01.530Z,100948.83
2018-08-11T14:34:32.354Z,100940.03
2018-08-11T14:37:02.989Z,100937.83
2018-08-11T14:39:33.703Z,100938.04
2018-08-11T14:42:04.547Z,100948.59
2018-08-11T14:44:35.358Z,100933.52
2018-08-11T14:47:06.056Z,100932.96
2018-08-11T14:49:36.753Z,100944.58
2018-08-11T14:52:07.603Z,100937.19
2018-08-11T14:54:38.381Z,100935.42
2018-08-11T14:57:09.031Z,100938.87
2018-08-11T14:59:39.819Z,100936.08
2018-08-11T15:02:10.467Z,100936.53
2018-08-11T15:04:41.154Z,100938.75
2018-08-11T15:07:11.797Z,100947.95
2018-08-11T15:09:42.521Z,100939.33
2018-08-11T15:12:13.212Z,100945.64
2018-08-11T15:14:43.871Z,100933.55
2018-08-11T15:17:14.592Z,100936.77
2018-08-11T15:19:45.256Z,100935.56
2018-08-11T15:22:15.890Z,100941.75
2018-08-11T15:24:46.554Z,100936.92
2018-08-11T15:27:17.178Z,100936.69
2018-08-11T15:29:47.869Z,100929.62
2018-08-11T15:32:18.601Z,100927.69
2018-08-11T15:34:50.160Z,100923.86
2018-08-11T15:37:20.889Z,100925.93
2018-08-11T15:39:51.530Z,100928.76
2018-08-11T15:42:22.184Z,100924.51
2018-08-11T15:44:52.823Z,100926.41
2018-08-11T15:47:23.452Z,100924.91
2018-08-11T15:49:54.119Z,100931.34
2018-08-11T15:52:24.797Z,100926.55
2018-08-11T15:54:55.461Z,100926.11
2018-08-11T15:57:26.098Z,100929.52
2018-08-11T15:59:56.779Z,100924.27
2018-08-11T16:02:27.431Z,100926.47
2018-08-11T16:04:58.085Z,100925.55
2018-08-11T16:07:28.809Z,100926.93
2018-08-11T16:09:59.431Z,100930.95
2018-08-11T16:12:30.090Z,100926.48
2018-08-11T16:15:00.708Z,100923.89
2018-08-11T16:17:31.479Z,100932.22
2018-08-11T16:20:02.092Z,100924.98
2018-08-11T16:22:32.793Z,100930.09
2018-08-11T16:25:03.564Z,100926.34
2018-08-11T16:27:34.246Z,100925.49
2018-08-11T16:30:05.591Z,100930.45
2018-08-11T16:32:36.288Z,100924.72
2018-08-11T16:35:06.972Z,100931.75
2018-08-11T16:37:38.150Z,100927.80
2018-08-11T16:40:09.392Z,100923.88
2018-08-11T16:42:39.980Z,100925.63
2018-08-11T16:45:10.629Z,100922.56
2018-08-11T16:47:41.315Z,100920.24
2018-08-11T16:50:12.027Z,100917.70
2018-08-11T16:52:42.714Z,100926.37
2018-08-11T16:55:13.477Z,100927.23
2018-08-11T16:57:44.132Z,100920.80
2018-08-11T17:00:14.783Z,100919.03
2018-08-11T17:02:45.509Z,100924.30
2018-08-11T17:05:16.165Z,100928.99
2018-08-11T17:07:46.828Z,100920.92
2018-08-11T17:10:17.434Z,100910.23
2018-08-11T17:12:48.199Z,100913.00
2018-08-11T17:15:18.871Z,100914.77
2018-08-11T17:17:49.435Z,100918.75
2018-08-11T17:20:20.061Z,100917.34
2018-08-11T17:22:50.712Z,100914.41
2018-08-11T17:25:21.396Z,100917.84
2018-08-11T17:27:52.063Z,100917.42
2018-08-11T17:30:22.689Z,100919.15
2018-08-11T17:32:53.342Z,100912.96
2018-08-11T17:35:24.032Z,100910.28
2018-08-11T17:37:54.637Z,100906.26
2018-08-11T17:40:25.296Z,100902.70
2018-08-11T17:42:56.071Z,100904.57
2018-08-11T17:45:26.703Z,100895.17
2018-08-11T17:47:57.409Z,100893.34
2018-08-11T17:50:28.049Z,100896.38
2018-08-11T17:52:58.771Z,100899.06
2018-08-11T17:55:29.458Z,100900.44
2018-08-11T17:58:00.126Z,100899.48
2018-08-11T18:00:30.810Z,100911.70
2018-08-11T18:03:01.430Z,100904.66
2018-08-11T18:05:32.114Z,100910.06
2018-08-11T18:08:02.801Z,100908.98
2018-08-11T18:10:33.517Z,100912.73
2018-08-11T18:13:04.227Z,100910.45
2018-08-11T18:15:34.870Z,100908.52
2018-08-11T18:18:05.561Z,100909.12
2018-08-11T18:20:36.232Z,100901.48
2018-08-11T18:23:07.629Z,100901.94
2018-08-11T18:25:38.305Z,100904.63
2018-08-11T18:28:08.964Z,100908.42
2018-08-11T18:30:39.706Z,100905.51
2018-08-11T18:33:10.437Z,100898.41
2018-08-11T18:35:41.121Z,100897.91
2018-08-11T18:38:11.881Z,100903.14
2018-08-11T18:40:42.515Z,100902.63
2018-08-11T18:43:13.234Z,100903.94
2018-08-11T18:45:43.856Z,100899.42
2018-08-11T18:48:14.525Z,100909.28
2018-08-11T18:50:45.247Z,100907.08
2018-08-11T18:53:15.875Z,100904.11
2018-08-11T18:55:46.560Z,100903.62
2018-08-11T18:58:17.216Z,100901.87
2018-08-11T19:00:47.958Z,100903.20
2018-08-11T19:03:18.607Z,100906.92
2018-08-11T19:05:49.398Z,100905.67
2018-08-11T19:08:20.075Z,100911.10
2018-08-11T19:10:50.804Z,100912.39
2018-08-11T19:13:21.500Z,100915.91
2018-08-11T19:15:52.192Z,100912.72
2018-08-11T19:18:22.946Z,100913.66
2018-08-11T19:20:53.639Z,100919.73
2018-08-11T19:23:24.296Z,100915.88
2018-08-11T19:25:55.074Z,100912.70
2018-08-11T19:28:25.782Z,100920.34
2018-08-11T19:30:56.484Z,100919.67
2018-08-11T19:33:27.095Z,100913.91
2018-08-11T19:35:57.812Z,100917.51
2018-08-11T19:38:28.488Z,100913.20
2018-08-11T19:40:59.271Z,100920.12
2018-08-11T19:43:29.985Z,100917.89
2018-08-11T19:46:00.841Z,100916.09
2018-08-11T19:48:31.466Z,100913.68
2018-08-11T19:51:02.206Z,100913.73
2018-08-11T19:53:32.867Z,100915.34
2018-08-11T19:56:04.037Z,100909.02
2018-08-11T19:58:34.631Z,100910.52
2018-08-11T20:01:05.398Z,100913.80
2018-08-11T20:03:36.119Z,100906.78
2018-08-11T20:06:06.979Z,100909.00
2018-08-11T20:08:37.659Z,100905.62
2018-08-11T20:11:08.353Z,100902.59
2018-08-11T20:13:39.046Z,100908.45
2018-08-11T20:16:09.668Z,100907.03
2018-08-11T20:18:40.406Z,100903.44
2018-08-11T20:21:11.095Z,100907.85
2018-08-11T20:23:41.885Z,100902.43
2018-08-11T20:26:12.518Z,100902.55
2018-08-11T20:28:43.227Z,100901.74
2018-08-11T20:31:13.913Z,100906.69
2018-08-11T20:33:44.629Z,100907.09
2018-08-11T20:36:15.350Z,100908.25
2018-08-11T20:38:46.064Z,100903.94
2018-08-11T20:41:16.799Z,100907.86
2018-08-11T20:43:47.544Z,100903.88
2018-08-11T20:46:18.295Z,100903.41
2018-08-11T20:48:49.007Z,100903.30
2018-08-11T20:51:19.772Z,100899.80
2018-08-11T20:53:50.478Z,100903.21
2018-08-11T20:56:21.191Z,100899.03
2018-08-11T20:58:51.923Z,100898.92
2018-08-11T21:01:22.579Z,100898.37
2018-08-11T21:03:53.341Z,100897.79
2018-08-11T21:06:24.004Z,100897.11
2018-08-11T21:08:54.859Z,100897.67
2018-08-11T21:11:25.549Z,100896.44
2018-08-11T21:13:56.280Z,100898.91
2018-08-11T21:16:27.001Z,100898.31
2018-08-11T21:18:57.704Z,100897.77
2018-08-11T21:21:28.373Z,100896.90
2018-08-11T21:23:59.130Z,100892.32
2018-08-11T21:26:29.960Z,100890.89
2018-08-11T21:29:00.803Z,100897.02
2018-08-11T21:31:31.496Z,100896.36
2018-08-11T21:34:02.214Z,100897.50
2018-08-11T21:36:32.948Z,100900.12
2018-08-11T21:39:03.694Z,100899.53
2018-08-11T21:41:34.417Z,100897.61
2018-08-11T21:44:05.164Z,100891.16
2018-08-11T21:47:06.771Z,100893.06
2018-08-11T21:49:37.489Z,100887.70
2018-08-11T21:52:08.270Z,100890.63
2018-08-11T21:54:38.934Z,100893.95
2018-08-11T21:57:09.705Z,100891.83
2018-08-11T21:59:40.397Z,100894.69
2018-08-11T22:02:11.175Z,100888.67
2018-08-11T22:04:41.826Z,100888.67
2018-08-11T22:07:12.459Z,100885.77
2018-08-11T22:09:43.149Z,100891.84
2018-08-11T22:12:13.916Z,100882.05
2018-08-11T22:14:44.580Z,100885.67
2018-08-11T22:17:15.325Z,100887.56
2018-08-11T22:19:45.996Z,100877.39
2018-08-11T22:22:16.650Z,100880.61
2018-08-11T22:24:47.329Z,100885.16
2018-08-11T22:27:17.951Z,100880.57
2018-08-11T22:29:48.704Z,100882.09
2018-08-11T22:32:19.466Z,100880.46
2018-08-11T22:34:50.196Z,100874.84
2018-08-11T22:37:20.862Z,100875.31
2018-08-11T22:39:51.558Z,100871.48
2018-08-11T22:42:22.269Z,100869.58
2018-08-11T22:44:53.060Z,100871.17
2018-08-11T22:47:23.897Z,100866.64
2018-08-11T22:49:54.466Z,100863.77
2018-08-11T22:52:25.191Z,100865.81
2018-08-11T22:54:55.981Z,100862.55
2018-08-11T22:57:26.726Z,100859.59
2018-08-11T22:59:57.472Z,100856.72
2018-08-11T23:02:28.184Z,100854.63
2018-08-11T23:04:58.873Z,100851.66
2018-08-11T23:07:29.497Z,100853.95
2018-08-11T23:10:00.194Z,100848.58
2018-08-11T23:12:30.901Z,100843.83
2018-08-11T23:15:01.580Z,100839.61
2018-08-11T23:17:32.337Z,100839.80
2018-08-11T23:20:03.076Z,100838.62
2018-08-11T23:22:33.934Z,100838.87
2018-08-11T23:25:05.548Z,100831.92
2018-08-11T23:27:36.593Z,100828.04
2018-08-11T23:30:10.532Z,100819.31
2018-08-11T23:32:42.174Z,100824.77
2018-08-11T23:35:13.590Z,100819.09
2018-08-11T23:37:44.259Z,100820.48
2018-08-11T23:40:14.975Z,100819.16
2018-08-11T23:42:45.679Z,100816.22
2018-08-11T23:45:17.038Z,100818.94
2018-08-11T23:47:47.762Z,100814.50
2018-08-11T23:50:18.423Z,100813.17
2018-08-11T23:52:49.131Z,100812.73
2018-08-11T23:55:19.857Z,100808.91
2018-08-11T23:57:50.548Z,100806.75
